Time;durP1;ratioP1;P1;durP2;ratioP2;P2;SDS_P1;SDS_P2;PMS_P1;PMS_P2;Temp;Humidity;BMP_temperature;BMP_pressure;BME280_temperature;BME280_humidity;BME280_pressure;Samples;Min_cycle;Max_cycle;Signal;HPM_P1;HPM_P2
2022/06/09 00:01:27;;;;;;;7.50;6.65;;;15.10;99.90;;;;;;5089263;28;20269;-52
2022/06/09 00:04:01;;;;;;;8.85;6.97;;;15.10;99.90;;;;;;5089335;28;20208;-51
2022/06/09 00:06:35;;;;;;;9.00;8.03;;;15.10;99.90;;;;;;5079699;28;20228;-51
2022/06/09 00:09:05;;;;;;;8.55;7.75;;;15.10;99.90;;;;;;5093239;28;20269;-49
2022/06/09 00:11:37;;;;;;;8.07;7.28;;;15.10;99.90;;;;;;5075889;28;20213;-52
2022/06/09 00:14:06;;;;;;;7.93;7.13;;;15.10;99.90;;;;;;5093780;28;20250;-51
2022/06/09 00:16:35;;;;;;;8.68;7.82;;;15.10;99.90;;;;;;5093541;28;20224;-51
2022/06/09 00:19:06;;;;;;;8.52;7.72;;;15.10;99.90;;;;;;5093948;28;20215;-50
2022/06/09 00:21:35;;;;;;;9.82;8.02;;;15.20;99.90;;;;;;5093718;28;20309;-50
2022/06/09 00:24:04;;;;;;;9.63;7.50;;;15.20;99.90;;;;;;5101230;28;20215;-51
2022/06/09 00:26:32;;;;;;;8.90;8.02;;;15.10;99.90;;;;;;5099953;28;20643;-51
2022/06/09 00:29:01;;;;;;;11.38;8.80;;;15.10;99.90;;;;;;5080673;28;20265;-51
2022/06/09 00:31:29;;;;;;;11.07;9.05;;;15.10;99.90;;;;;;5093599;28;20204;-51
2022/06/09 00:33:57;;;;;;;9.10;8.20;;;15.00;99.90;;;;;;5093608;28;20731;-51
2022/06/09 00:36:26;;;;;;;9.55;8.60;;;15.00;99.90;;;;;;5093558;28;20286;-50
2022/06/09 00:38:55;;;;;;;11.03;8.43;;;15.00;99.90;;;;;;5092606;28;20264;-51
2022/06/09 00:41:24;;;;;;;15.90;9.15;;;15.00;99.90;;;;;;5093149;28;20230;-51
2022/06/09 00:43:52;;;;;;;10.05;8.13;;;14.90;99.90;;;;;;5093420;28;20235;-51
2022/06/09 00:46:24;;;;;;;9.93;8.90;;;14.90;99.90;;;;;;5093089;28;20259;-50
2022/06/09 00:48:55;;;;;;;12.57;8.73;;;14.90;99.90;;;;;;5093142;28;20572;-51
2022/06/09 00:51:33;;;;;;;10.13;8.47;;;14.90;99.90;;;;;;5093190;28;20261;-51
2022/06/09 00:54:08;;;;;;;11.20;8.93;;;14.90;99.90;;;;;;5092481;28;20638;-52
2022/06/09 00:56:40;;;;;;;10.32;8.65;;;14.80;99.90;;;;;;5093155;28;20656;-50
2022/06/09 00:59:12;;;;;;;10.25;8.88;;;14.80;99.90;;;;;;5092959;28;20224;-51
2022/06/09 01:01:40;;;;;;;9.57;8.10;;;14.80;99.90;;;;;;5092011;28;20254;-52
2022/06/09 01:04:11;;;;;;;10.93;9.27;;;14.80;99.90;;;;;;5093093;28;20215;-51
2022/06/09 01:06:45;;;;;;;11.13;8.53;;;14.80;99.90;;;;;;5092705;28;20286;-50
2022/06/09 01:09:16;;;;;;;11.23;8.68;;;14.80;99.90;;;;;;5093127;28;20199;-51
2022/06/09 01:11:47;;;;;;;9.90;8.90;;;14.80;99.90;;;;;;5079158;28;20962;-51
2022/06/09 01:14:17;;;;;;;9.98;8.48;;;14.80;99.90;;;;;;5092807;28;20208;-52
2022/06/09 01:16:57;;;;;;;11.60;9.60;;;14.80;99.90;;;;;;5092002;28;20200;-50
2022/06/09 01:19:52;;;;;;;11.77;9.40;;;14.70;99.90;;;;;;5093391;28;20259;-51
2022/06/09 01:22:53;;;;;;;13.63;9.67;;;14.80;99.90;;;;;;5082698;28;20270;-51
2022/06/09 01:25:55;;;;;;;11.73;9.97;;;14.70;99.90;;;;;;5045398;28;20262;-50
2022/06/09 01:28:51;;;;;;;13.20;9.23;;;14.60;99.90;;;;;;5092374;28;20200;-51
2022/06/09 01:31:26;;;;;;;12.07;9.10;;;14.50;99.90;;;;;;5059230;28;20205;-51
2022/06/09 01:34:02;;;;;;;11.07;9.43;;;14.50;99.90;;;;;;5092347;28;20235;-51
2022/06/09 01:36:36;;;;;;;9.77;8.77;;;14.50;99.90;;;;;;5092504;28;20258;-50
2022/06/09 01:39:05;;;;;;;11.20;9.43;;;14.60;99.90;;;;;;5092359;28;20281;-51
2022/06/09 01:41:34;;;;;;;11.30;9.70;;;14.60;99.90;;;;;;5092610;28;20212;-51
2022/06/09 01:44:04;;;;;;;11.47;9.33;;;14.60;99.90;;;;;;5092597;28;20204;-51
2022/06/09 01:46:35;;;;;;;10.40;9.03;;;14.60;99.90;;;;;;5092150;28;20235;-54
2022/06/09 01:49:10;;;;;;;14.88;10.15;;;14.60;99.90;;;;;;5092008;28;20200;-50
2022/06/09 01:51:41;;;;;;;12.30;9.77;;;14.60;99.90;;;;;;5092355;28;20211;-51
2022/06/09 01:54:15;;;;;;;12.30;10.00;;;14.60;99.90;;;;;;5092409;28;20249;-51
2022/06/09 01:56:48;;;;;;;13.30;10.20;;;14.60;99.90;;;;;;5092226;28;20243;-50
2022/06/09 01:59:20;;;;;;;14.57;10.80;;;14.70;99.90;;;;;;5092157;28;20224;-50
2022/06/09 02:01:55;;;;;;;16.73;12.07;;;14.60;99.90;;;;;;5091680;28;20242;-52
2022/06/09 02:04:27;;;;;;;17.50;12.10;;;14.60;99.90;;;;;;5092108;28;20235;-51
2022/06/09 02:06:56;;;;;;;14.80;12.27;;;14.60;99.90;;;;;;5091995;28;20254;-51
2022/06/09 02:09:26;;;;;;;16.33;11.80;;;14.60;99.90;;;;;;5091566;28;20684;-51
2022/06/09 02:11:57;;;;;;;19.20;13.67;;;14.60;99.90;;;;;;5077947;28;20619;-51
2022/06/09 02:14:29;;;;;;;16.00;12.70;;;14.60;99.90;;;;;;5091682;28;20208;-50
2022/06/09 02:16:59;;;;;;;15.27;12.30;;;14.70;99.90;;;;;;5091251;28;20208;-51
2022/06/09 02:19:28;;;;;;;16.13;13.70;;;14.70;99.90;;;;;;5091427;28;20599;-52
2022/06/09 02:21:57;;;;;;;16.77;13.57;;;14.60;99.90;;;;;;5091763;28;20216;-51
2022/06/09 02:24:27;;;;;;;16.27;12.80;;;14.60;99.90;;;;;;5091136;28;20215;-51
2022/06/09 02:26:55;;;;;;;19.50;13.23;;;14.50;99.90;;;;;;5091620;28;20247;-50
2022/06/09 02:29:23;;;;;;;13.67;11.80;;;14.50;99.90;;;;;;5090130;28;20222;-51
2022/06/09 02:31:51;;;;;;;16.47;12.03;;;14.40;99.90;;;;;;5111795;28;20247;-51
2022/06/09 02:34:21;;;;;;;18.07;13.00;;;14.50;99.90;;;;;;5110955;28;20282;-50
2022/06/09 02:36:49;;;;;;;18.37;13.40;;;14.50;99.90;;;;;;5107813;28;20265;-51
2022/06/09 02:39:17;;;;;;;17.50;12.47;;;14.40;99.90;;;;;;5105208;28;20232;-51
2022/06/09 02:41:45;;;;;;;14.90;12.20;;;14.40;99.90;;;;;;5111113;28;20204;-50
2022/06/09 02:44:13;;;;;;;15.63;12.97;;;14.40;99.90;;;;;;5111495;28;20262;-51
2022/06/09 02:46:41;;;;;;;17.13;12.20;;;14.40;99.90;;;;;;5110922;28;20211;-51
2022/06/09 02:49:09;;;;;;;16.87;12.60;;;14.40;99.90;;;;;;5103161;28;20242;-51
2022/06/09 02:51:42;;;;;;;16.83;13.23;;;14.50;99.90;;;;;;5104145;28;20246;-51
2022/06/09 02:54:12;;;;;;;18.27;14.13;;;14.50;99.90;;;;;;5110676;28;20676;-50
2022/06/09 02:56:42;;;;;;;19.73;14.70;;;14.50;99.90;;;;;;5111174;28;20235;-51
2022/06/09 02:59:10;;;;;;;19.93;13.20;;;14.50;99.90;;;;;;5110422;28;20231;-52
2022/06/09 03:01:38;;;;;;;16.58;13.38;;;14.50;99.90;;;;;;5110758;28;20265;-51
2022/06/09 03:04:07;;;;;;;19.67;14.97;;;14.50;99.90;;;;;;5110987;28;20210;-50
2022/06/09 03:06:36;;;;;;;17.02;13.55;;;14.60;99.90;;;;;;5110847;28;20236;-50
2022/06/09 03:09:06;;;;;;;18.00;13.60;;;14.60;99.90;;;;;;5095889;28;20231;-51
2022/06/09 03:11:34;;;;;;;15.93;12.23;;;14.60;99.90;;;;;;5110758;28;20664;-52
2022/06/09 03:14:02;;;;;;;16.70;12.13;;;14.60;99.90;;;;;;5111004;28;20264;-51
2022/06/09 03:16:30;;;;;;;15.63;11.90;;;14.70;99.90;;;;;;5099152;28;20259;-51
2022/06/09 03:18:58;;;;;;;15.07;12.45;;;14.70;99.90;;;;;;5107670;28;20688;-52
2022/06/09 03:21:26;;;;;;;16.03;12.63;;;14.70;99.90;;;;;;5107443;28;20208;-51
2022/06/09 03:23:55;;;;;;;14.13;11.60;;;14.70;99.90;;;;;;5105853;28;20203;-51
2022/06/09 03:26:24;;;;;;;15.20;11.30;;;14.60;99.90;;;;;;5110973;28;20235;-50
2022/06/09 03:28:52;;;;;;;18.37;12.50;;;14.70;99.90;;;;;;5117766;28;20219;-51
2022/06/09 03:31:20;;;;;;;15.80;11.03;;;14.60;99.90;;;;;;5117780;28;20233;-51
2022/06/09 03:33:49;;;;;;;13.53;10.63;;;14.70;99.90;;;;;;5110933;28;20276;-51
2022/06/09 03:36:18;;;;;;;22.53;11.77;;;14.70;99.90;;;;;;5110629;28;20598;-51
2022/06/09 03:38:46;;;;;;;18.30;11.77;;;14.60;99.90;;;;;;5102058;28;20256;-51
2022/06/09 03:41:14;;;;;;;14.70;11.50;;;14.60;99.90;;;;;;5105574;28;20195;-51
2022/06/09 03:43:43;;;;;;;15.60;10.97;;;14.50;99.90;;;;;;5110386;28;20418;-51
2022/06/09 03:46:12;;;;;;;17.93;12.27;;;14.50;99.90;;;;;;5110587;28;20319;-51
2022/06/09 03:48:40;;;;;;;12.85;10.48;;;14.50;99.90;;;;;;5103388;28;20203;-51
2022/06/09 03:51:08;;;;;;;20.15;12.13;;;14.50;99.90;;;;;;5110195;28;20199;-51
2022/06/09 03:53:36;;;;;;;19.03;11.70;;;14.50;99.90;;;;;;5109790;28;20207;-51
2022/06/09 03:56:05;;;;;;;19.48;12.15;;;14.60;99.90;;;;;;5110099;28;20723;-51
2022/06/09 03:58:33;;;;;;;19.35;11.68;;;14.60;99.90;;;;;;5110277;28;20245;-51
2022/06/09 04:01:02;;;;;;;15.73;11.65;;;14.60;99.90;;;;;;5110063;28;20274;-51
2022/06/09 04:03:30;;;;;;;15.40;12.40;;;14.60;99.90;;;;;;5110231;28;20210;-51
2022/06/09 04:05:59;;;;;;;16.53;11.83;;;14.60;99.90;;;;;;5109978;28;20223;-51
2022/06/09 04:08:30;;;;;;;14.68;11.32;;;14.70;99.90;;;;;;5110204;28;20204;-51
2022/06/09 04:10:58;;;;;;;25.27;14.27;;;14.70;99.90;;;;;;5110167;28;20225;-52
2022/06/09 04:13:26;;;;;;;16.43;11.73;;;14.70;99.90;;;;;;5109635;28;20204;-51
2022/06/09 04:15:54;;;;;;;13.35;11.57;;;14.70;99.90;;;;;;5110156;28;20223;-52
2022/06/09 04:18:24;;;;;;;15.38;12.43;;;14.70;99.90;;;;;;5105096;28;20204;-51
2022/06/09 04:20:52;;;;;;;13.10;10.77;;;14.80;99.90;;;;;;5110436;28;20266;-51
2022/06/09 04:23:20;;;;;;;15.57;11.68;;;14.80;99.90;;;;;;5104325;28;20733;-51
2022/06/09 04:25:48;;;;;;;13.45;11.15;;;14.90;99.90;;;;;;5110578;28;20223;-50
2022/06/09 04:28:16;;;;;;;15.00;12.10;;;15.00;99.90;;;;;;5110218;28;20239;-51
2022/06/09 04:30:44;;;;;;;14.13;11.57;;;15.00;99.90;;;;;;5109669;28;20257;-51
2022/06/09 04:33:12;;;;;;;14.77;12.70;;;15.00;99.90;;;;;;5110585;28;20648;-52
2022/06/09 04:35:42;;;;;;;15.83;12.10;;;15.00;99.90;;;;;;5109904;28;20367;-51
2022/06/09 04:38:11;;;;;;;17.87;13.27;;;15.00;99.90;;;;;;5109552;28;20236;-51
2022/06/09 04:40:40;;;;;;;17.35;12.20;;;15.00;99.90;;;;;;5096056;28;20267;-51
2022/06/09 04:43:11;;;;;;;13.98;12.00;;;14.90;99.90;;;;;;5110816;28;20204;-49
2022/06/09 04:45:41;;;;;;;16.08;12.18;;;14.90;99.90;;;;;;5109165;28;20661;-51
2022/06/09 04:48:10;;;;;;;17.83;12.60;;;14.90;99.90;;;;;;5106334;28;20208;-52
2022/06/09 04:50:42;;;;;;;14.03;11.17;;;14.90;99.90;;;;;;5110295;28;20249;-51
2022/06/09 04:53:10;;;;;;;15.43;12.73;;;14.90;99.90;;;;;;5112276;28;20208;-52
2022/06/09 04:55:39;;;;;;;14.63;12.80;;;14.90;99.90;;;;;;5114314;28;20263;-52
2022/06/09 04:58:08;;;;;;;19.27;13.27;;;14.90;99.90;;;;;;5112988;28;20844;-52
2022/06/09 05:00:36;;;;;;;12.75;11.38;;;15.00;99.90;;;;;;5113667;28;20730;-52
2022/06/09 05:03:04;;;;;;;17.55;12.48;;;15.00;99.90;;;;;;5113020;28;20207;-51
2022/06/09 05:05:35;;;;;;;17.92;13.20;;;15.00;99.90;;;;;;5113402;28;20292;-51
2022/06/09 05:08:04;;;;;;;19.25;13.15;;;15.00;99.90;;;;;;5113724;28;20261;-51
2022/06/09 05:10:34;;;;;;;15.75;11.80;;;15.00;99.90;;;;;;5107060;28;20677;-51
2022/06/09 05:13:05;;;;;;;15.80;12.07;;;15.10;99.90;;;;;;5106242;28;20211;-51
2022/06/09 05:15:37;;;;;;;19.23;14.18;;;15.00;99.90;;;;;;5112426;28;20228;-51
2022/06/09 05:18:06;;;;;;;17.48;13.55;;;15.00;99.90;;;;;;5096448;28;20665;-50
2022/06/09 05:20:34;;;;;;;16.40;12.13;;;15.10;99.90;;;;;;5111523;28;20704;-51
2022/06/09 05:23:04;;;;;;;16.85;12.70;;;15.10;99.90;;;;;;5107592;28;20234;-51
2022/06/09 05:25:32;;;;;;;17.67;12.93;;;15.10;99.90;;;;;;5112708;28;20228;-51
2022/06/09 05:28:00;;;;;;;17.88;14.30;;;15.00;99.90;;;;;;5113060;28;20280;-50
2022/06/09 05:30:28;;;;;;;17.83;12.20;;;15.20;99.90;;;;;;5112751;28;20257;-52
2022/06/09 05:32:56;;;;;;;15.73;12.65;;;15.30;99.90;;;;;;5112895;28;20745;-50
2022/06/09 05:35:24;;;;;;;14.85;13.00;;;15.70;99.90;;;;;;5112850;28;20813;-51
2022/06/09 05:46:15;;;;;;;16.92;12.13;;;16.30;99.90;;;;;;5112676;28;20223;-51
2022/06/09 05:48:43;;;;;;;13.23;11.70;;;17.00;99.90;;;;;;5108156;28;20204;-50
2022/06/09 05:51:13;;;;;;;18.17;11.25;;;18.40;99.90;;;;;;5102049;28;20215;-50
2022/06/09 05:53:41;;;;;;;15.02;11.70;;;18.40;99.90;;;;;;5084199;28;20236;-50
2022/06/09 05:56:11;;;;;;;16.85;11.18;;;18.60;99.90;;;;;;5097635;28;20219;-51
2022/06/09 05:58:40;;;;;;;15.40;11.07;;;18.60;99.90;;;;;;5111752;28;20332;-51
2022/06/09 06:01:11;;;;;;;12.15;10.90;;;19.50;99.90;;;;;;5111188;28;20772;-51
2022/06/09 06:03:40;;;;;;;11.23;10.02;;;20.40;99.90;;;;;;5111678;28;20204;-51
2022/06/09 06:08:54;;;;;;;14.13;9.90;;;21.50;99.90;;;;;;5111778;28;20582;-51
2022/06/09 06:11:24;;;;;;;11.85;9.00;;;22.00;99.90;;;;;;5111524;28;20203;-51
2022/06/09 06:13:54;;;;;;;11.05;9.30;;;21.60;99.90;;;;;;5111484;28;20761;-50
2022/06/09 06:16:23;;;;;;;10.82;9.63;;;21.70;99.90;;;;;;5111257;28;20234;-52
2022/06/09 06:19:03;;;;;;;11.73;9.68;;;21.70;99.90;;;;;;5112231;28;20290;-52
2022/06/09 06:21:31;;;;;;;13.68;9.18;;;22.50;99.90;;;;;;5107807;28;20224;-51
2022/06/09 06:23:59;;;;;;;11.63;9.60;;;22.10;99.90;;;;;;5099520;28;20272;-51
2022/06/09 06:26:29;;;;;;;10.82;9.13;;;21.70;99.90;;;;;;5111550;28;20658;-51
2022/06/09 06:28:57;;;;;;;11.77;9.80;;;21.60;99.90;;;;;;5096760;28;20204;-51
2022/06/09 06:31:25;;;;;;;11.25;9.80;;;21.40;99.90;;;;;;5099623;28;20223;-51
2022/06/09 06:33:53;;;;;;;11.95;9.43;;;21.00;99.90;;;;;;5090397;28;20204;-50
2022/06/09 06:36:21;;;;;;;15.75;9.55;;;20.50;99.90;;;;;;5090696;28;20232;-51
2022/06/09 06:38:50;;;;;;;11.63;9.00;;;20.60;99.90;;;;;;5077237;28;20212;-52
2022/06/09 06:41:19;;;;;;;10.68;8.05;;;21.60;99.90;;;;;;5085979;28;20733;-50
2022/06/09 06:43:49;;;;;;;14.02;9.63;;;22.40;99.90;;;;;;5090491;28;20281;-52
2022/06/09 06:46:19;;;;;;;10.32;7.82;;;23.20;99.90;;;;;;5082459;28;20306;-51
2022/06/09 06:48:48;;;;;;;10.40;7.38;;;23.80;99.90;;;;;;5090036;28;20209;-52
2022/06/09 06:51:16;;;;;;;9.52;7.30;;;24.50;99.90;;;;;;5081143;28;20208;-53
2022/06/09 06:53:45;;;;;;;10.50;8.15;;;23.90;99.90;;;;;;5085061;28;20208;-52
2022/06/09 06:56:13;;;;;;;10.52;7.45;;;24.20;99.90;;;;;;5088739;28;20584;-53
2022/06/09 06:58:42;;;;;;;11.55;8.10;;;24.50;99.90;;;;;;5095939;28;20221;-53
2022/06/09 07:01:12;;;;;;;14.18;10.82;;;23.50;99.90;;;;;;5109006;28;20216;-52
2022/06/09 07:03:40;;;;;;;19.25;14.82;;;22.50;99.90;;;;;;5109878;28;20221;-52
2022/06/09 07:06:09;;;;;;;8.77;7.85;;;22.40;99.90;;;;;;5109306;28;20216;-53
2022/06/09 07:08:37;;;;;;;13.55;9.10;;;22.40;99.90;;;;;;5091492;28;20246;-52
2022/06/09 07:11:06;;;;;;;12.75;8.80;;;22.00;99.90;;;;;;5089923;28;20212;-53
2022/06/09 07:13:36;;;;;;;10.68;8.57;;;21.70;99.90;;;;;;5087791;28;20256;-52
2022/06/09 07:16:06;;;;;;;12.52;9.02;;;21.50;99.90;;;;;;5085929;28;20751;-52
2022/06/09 07:18:47;;;;;;;11.48;8.90;;;21.30;99.90;;;;;;5087065;28;20363;-52
2022/06/09 07:21:15;;;;;;;12.52;9.38;;;21.00;99.90;;;;;;5089893;28;20277;-51
2022/06/09 07:23:45;;;;;;;14.35;10.45;;;20.80;99.90;;;;;;5089457;28;20709;-53
2022/06/09 07:26:13;;;;;;;12.43;9.55;;;20.50;99.90;;;;;;5089478;28;20220;-51
2022/06/09 07:28:41;;;;;;;12.77;9.35;;;20.40;99.90;;;;;;5089843;28;20207;-52
2022/06/09 07:31:10;;;;;;;13.77;10.15;;;20.40;99.90;;;;;;5089436;28;20632;-53
2022/06/09 07:33:40;;;;;;;12.68;9.68;;;20.50;99.90;;;;;;5089851;28;20554;-51
2022/06/09 07:36:12;;;;;;;13.68;10.43;;;20.50;99.90;;;;;;5078152;28;20240;-52
2022/06/09 07:38:40;;;;;;;12.18;9.38;;;20.50;99.90;;;;;;5088982;28;20285;-52
2022/06/09 07:41:09;;;;;;;11.55;9.55;;;20.40;99.90;;;;;;5089068;28;20264;-52
2022/06/09 07:43:58;;;;;;;14.52;10.23;;;20.40;99.90;;;;;;5089299;28;20230;-52
2022/06/09 07:46:27;;;;;;;11.80;9.77;;;20.30;99.90;;;;;;5088913;28;20224;-52
2022/06/09 07:48:56;;;;;;;13.95;9.93;;;20.20;99.90;;;;;;5089427;28;20224;-52
2022/06/09 07:51:25;;;;;;;14.32;9.13;;;20.00;99.90;;;;;;5078257;28;20242;-52
2022/06/09 07:53:54;;;;;;;14.60;9.77;;;19.90;99.90;;;;;;5088820;28;20307;-52
2022/06/09 07:56:23;;;;;;;13.85;9.73;;;19.90;99.90;;;;;;5089275;28;20224;-52
2022/06/09 07:58:51;;;;;;;10.00;8.88;;;19.90;99.90;;;;;;5097062;28;20687;-52
2022/06/09 08:01:20;;;;;;;12.00;9.07;;;20.10;99.90;;;;;;5109048;28;20223;-52
2022/06/09 08:03:48;;;;;;;15.20;8.77;;;20.10;99.90;;;;;;5109670;28;20203;-52
2022/06/09 08:06:16;;;;;;;11.30;8.10;;;20.20;99.90;;;;;;5109949;28;20304;-52
2022/06/09 08:08:57;;;;;;;9.18;8.13;;;20.20;99.90;;;;;;5082303;28;20260;-51
2022/06/09 08:11:28;;;;;;;9.93;7.07;;;20.30;99.90;;;;;;5109734;28;20200;-52
2022/06/09 08:13:58;;;;;;;8.43;6.65;;;20.70;99.90;;;;;;5109176;28;20718;-52
2022/06/09 08:16:28;;;;;;;10.98;7.40;;;21.00;99.90;;;;;;5109404;28;20234;-52
2022/06/09 08:18:56;;;;;;;9.60;7.28;;;20.80;99.90;;;;;;5109236;28;20302;-52
2022/06/09 08:21:25;;;;;;;7.65;6.80;;;20.60;99.90;;;;;;5106689;28;20204;-52
2022/06/09 08:24:12;;;;;;;8.27;6.13;;;20.50;99.90;;;;;;5081453;28;20311;-52
2022/06/09 08:26:41;;;;;;;8.73;7.07;;;20.30;99.90;;;;;;5109670;28;20230;-52
2022/06/09 08:29:09;;;;;;;7.60;6.18;;;20.30;99.90;;;;;;5113602;28;20231;-52
2022/06/09 08:31:37;;;;;;;7.65;6.70;;;20.20;99.90;;;;;;5105421;28;20246;-52
2022/06/09 08:34:05;;;;;;;7.00;6.22;;;20.20;99.90;;;;;;5111168;28;20290;-52
2022/06/09 08:36:33;;;;;;;6.60;5.97;;;20.30;99.90;;;;;;5112953;28;20246;-52
2022/06/09 08:39:01;;;;;;;8.25;5.43;;;20.30;99.90;;;;;;5110957;28;20253;-52
2022/06/09 08:41:44;;;;;;;7.03;6.07;;;20.80;99.90;;;;;;5101675;28;20257;-52
2022/06/09 08:44:25;;;;;;;7.55;5.32;;;20.70;99.90;;;;;;5113369;28;20227;-52
2022/06/09 08:47:02;;;;;;;6.85;5.05;;;20.70;99.90;;;;;;5111212;28;20203;-52
2022/06/09 08:49:46;;;;;;;9.70;6.18;;;20.90;99.90;;;;;;5112459;28;20203;-51
2022/06/09 08:52:22;;;;;;;7.35;5.32;;;21.30;99.90;;;;;;5112509;28;20610;-52
2022/06/09 08:54:51;;;;;;;5.55;4.60;;;21.90;99.90;;;;;;5113011;28;20249;-52
2022/06/09 08:57:26;;;;;;;6.15;5.03;;;21.90;99.90;;;;;;5112786;28;20211;-52
2022/06/09 08:59:58;;;;;;;5.22;4.70;;;21.70;99.90;;;;;;5113113;28;20206;-52
2022/06/09 09:02:32;;;;;;;7.25;5.05;;;21.40;99.90;;;;;;5112688;28;20247;-52
2022/06/09 09:05:14;;;;;;;8.65;5.00;;;21.20;99.90;;;;;;5112764;28;20230;-52
2022/06/09 09:07:46;;;;;;;6.82;4.97;;;21.40;99.90;;;;;;5112506;28;20253;-51
2022/06/09 09:10:23;;;;;;;8.77;4.95;;;21.70;99.90;;;;;;5103991;28;20261;-52
2022/06/09 09:13:06;;;;;;;6.05;5.25;;;21.80;99.90;;;;;;5113032;28;20203;-52
2022/06/09 09:15:39;;;;;;;6.30;5.30;;;22.10;99.90;;;;;;5111912;28;20219;-52
2022/06/09 09:18:23;;;;;;;6.10;5.25;;;22.20;99.90;;;;;;5112342;28;20208;-52
2022/06/09 09:21:15;;;;;;;6.97;4.97;;;22.30;99.90;;;;;;5086251;28;20208;-52
2022/06/09 09:23:52;;;;;;;6.47;5.10;;;22.00;99.90;;;;;;5104954;28;20284;-52
2022/06/09 09:26:28;;;;;;;5.65;4.90;;;21.80;99.90;;;;;;5111879;28;20276;-52
2022/06/09 09:29:09;;;;;;;8.25;5.45;;;21.90;99.90;;;;;;5111914;28;20256;-52
2022/06/09 09:31:49;;;;;;;6.97;5.18;;;21.80;99.90;;;;;;5111286;28;20751;-52
2022/06/09 09:34:21;;;;;;;7.38;5.20;;;22.20;99.90;;;;;;5111798;28;20667;-52
2022/06/09 09:36:54;;;;;;;8.85;5.43;;;22.40;99.90;;;;;;5112027;28;20220;-52
2022/06/09 09:39:30;;;;;;;7.10;5.50;;;22.10;99.90;;;;;;5106425;28;20269;-52
2022/06/09 09:42:10;;;;;;;7.80;5.07;;;21.90;99.90;;;;;;5085476;28;20696;-52
2022/06/09 09:44:40;;;;;;;7.50;5.30;;;22.00;99.90;;;;;;5084647;28;20806;-52
2022/06/09 09:47:09;;;;;;;7.55;5.05;;;22.20;99.90;;;;;;5108945;28;20258;-52
2022/06/09 09:49:44;;;;;;;6.72;5.32;;;22.50;99.90;;;;;;5110902;28;20204;-51
2022/06/09 09:52:36;;;;;;;7.15;5.00;;;22.70;99.90;;;;;;5111710;28;20241;-52
2022/06/09 09:55:09;;;;;;;6.65;4.82;;;22.40;99.90;;;;;;5087708;28;20223;-52
2022/06/09 09:57:37;;;;;;;5.95;4.90;;;22.40;99.90;;;;;;5104191;28;20269;-52
2022/06/09 10:00:26;;;;;;;6.65;4.60;;;22.20;99.90;;;;;;5111558;28;20204;-52
2022/06/09 10:08:54;;;;;;;6.43;4.78;;;21.70;99.90;;;;;;5111388;28;20207;-52
2022/06/09 10:11:58;;;;;;;6.07;4.80;;;21.80;99.90;;;;;;5059306;28;21026;-52
2022/06/09 10:14:32;;;;;;;6.45;4.68;;;21.60;99.90;;;;;;5110675;28;20199;-52
2022/06/09 10:17:35;;;;;;;6.72;5.20;;;21.60;99.90;;;;;;5111022;28;20613;-51
2022/06/09 10:20:29;;;;;;;5.63;4.50;;;21.50;99.90;;;;;;5110962;28;20214;-50
2022/06/09 10:23:02;;;;;;;6.03;4.40;;;21.30;99.90;;;;;;5105156;28;20695;-51
2022/06/09 10:25:38;;;;;;;6.93;4.85;;;21.20;99.90;;;;;;5110758;28;20223;-51
2022/06/09 10:28:13;;;;;;;6.43;4.30;;;21.40;99.90;;;;;;5110395;28;20211;-51
2022/06/09 10:30:47;;;;;;;6.65;4.93;;;21.60;99.90;;;;;;5110437;28;20203;-51
2022/06/09 10:33:27;;;;;;;6.60;4.63;;;22.00;99.90;;;;;;5110667;28;20208;-52
2022/06/09 10:36:00;;;;;;;8.35;4.90;;;22.40;99.90;;;;;;5111135;28;20231;-51
2022/06/09 10:38:37;;;;;;;6.28;4.93;;;22.60;99.90;;;;;;5111023;28;20256;-51
2022/06/09 10:41:11;;;;;;;6.45;5.15;;;22.90;99.90;;;;;;5096901;28;20204;-51
2022/06/09 10:43:44;;;;;;;6.30;4.80;;;23.00;99.90;;;;;;5110284;28;20231;-51
2022/06/09 10:46:27;;;;;;;7.05;4.93;;;22.90;99.90;;;;;;5110499;28;20223;-51
2022/06/09 10:57:46;;;;;;;6.50;4.55;;;23.00;99.90;;;;;;5109600;28;20239;-52
2022/06/09 11:00:18;;;;;;;8.80;5.00;;;22.90;99.90;;;;;;5110697;28;20203;-52
2022/06/09 11:02:50;;;;;;;6.47;4.82;;;23.00;99.90;;;;;;5110247;28;20257;-52
2022/06/09 11:05:25;;;;;;;6.05;4.43;;;23.30;99.90;;;;;;5110987;28;20223;-51
2022/06/09 11:08:05;;;;;;;5.60;4.07;;;23.30;99.90;;;;;;5097559;28;20841;-52
2022/06/09 11:10:55;;;;;;;4.93;3.53;;;23.10;99.90;;;;;;5088199;28;20200;-52
2022/06/09 11:13:54;;;;;;;4.32;3.70;;;23.20;99.90;;;;;;5109678;28;20331;-52
2022/06/09 11:16:32;;;;;;;6.25;3.42;;;23.20;99.90;;;;;;5088792;28;20277;-52
2022/06/09 11:19:20;;;;;;;5.63;3.60;;;23.40;99.90;;;;;;5083368;28;20219;-53
2022/06/09 11:21:55;;;;;;;4.60;3.40;;;23.40;99.90;;;;;;5089818;28;20204;-51
2022/06/09 11:24:32;;;;;;;4.40;2.90;;;23.40;99.90;;;;;;5109617;28;20219;-52
2022/06/09 11:27:12;;;;;;;4.90;3.30;;;23.70;99.90;;;;;;5110338;28;20283;-52
2022/06/09 11:29:55;;;;;;;3.28;2.83;;;23.70;99.90;;;;;;5109833;28;20204;-52
2022/06/09 11:32:31;;;;;;;4.22;2.45;;;23.40;99.90;;;;;;5110030;28;20199;-52
2022/06/09 11:35:08;;;;;;;3.60;2.90;;;23.30;99.90;;;;;;5109944;28;20227;-52
2022/06/09 11:38:10;;;;;;;3.92;2.90;;;23.40;99.90;;;;;;5109615;28;20207;-51
2022/06/09 11:40:44;;;;;;;4.50;3.15;;;23.60;99.90;;;;;;5106768;28;20267;-52
2022/06/09 11:43:28;;;;;;;3.47;3.03;;;23.60;99.90;;;;;;5110210;28;20258;-52
2022/06/09 11:46:01;;;;;;;4.85;3.50;;;23.50;99.90;;;;;;5109506;28;20708;-52
2022/06/09 11:48:34;;;;;;;5.45;3.55;;;23.70;99.90;;;;;;5108599;28;20255;-52
2022/06/09 11:51:04;;;;;;;5.10;3.58;;;23.70;99.90;;;;;;5110238;28;20261;-52
2022/06/09 11:53:40;;;;;;;4.60;3.20;;;23.60;99.90;;;;;;5109756;28;20227;-52
2022/06/09 11:56:34;;;;;;;4.80;2.67;;;23.60;99.90;;;;;;5109658;28;20227;-52
2022/06/09 11:59:06;;;;;;;3.65;3.15;;;23.50;99.90;;;;;;5109566;28;20235;-51
2022/06/09 12:01:49;;;;;;;5.32;3.20;;;23.30;99.90;;;;;;5111428;28;20683;-52
2022/06/09 12:04:40;;;;;;;5.95;3.25;;;23.00;99.90;;;;;;5114094;28;20222;-52
2022/06/09 12:07:26;;;;;;;4.45;3.20;;;22.80;99.90;;;;;;5100798;28;20207;-52
2022/06/09 12:10:19;;;;;;;4.93;3.20;;;23.00;99.90;;;;;;5105316;28;20265;-52
2022/06/09 12:13:06;;;;;;;8.02;3.30;;;23.20;99.90;;;;;;5114168;28;20215;-52
2022/06/09 12:15:47;;;;;;;4.43;3.22;;;23.50;99.90;;;;;;5113526;28;20223;-51
2022/06/09 12:18:39;;;;;;;4.60;3.13;;;23.70;99.90;;;;;;5113879;28;20206;-52
2022/06/09 12:21:12;;;;;;;4.88;3.47;;;23.50;99.90;;;;;;5090915;28;20228;-52
2022/06/09 12:23:42;;;;;;;4.88;2.60;;;23.10;99.90;;;;;;5109222;28;20272;-52
2022/06/09 12:26:29;;;;;;;3.30;2.33;;;22.80;99.90;;;;;;5113192;28;20773;-52
2022/06/09 12:29:16;;;;;;;1.90;1.58;;;22.50;99.90;;;;;;5113722;28;20252;-52
2022/06/09 12:32:18;;;;;;;3.13;1.90;;;22.70;99.90;;;;;;5110895;28;20203;-51
2022/06/09 12:34:50;;;;;;;2.30;1.70;;;22.70;99.90;;;;;;5092547;28;20223;-52
2022/06/09 12:37:22;;;;;;;2.47;1.77;;;22.80;99.90;;;;;;5112988;28;20268;-52
2022/06/09 12:39:53;;;;;;;3.63;2.15;;;23.10;99.90;;;;;;5105111;28;20208;-52
2022/06/09 12:42:26;;;;;;;2.63;2.20;;;23.30;99.90;;;;;;5109181;28;20672;-51
2022/06/09 12:45:03;;;;;;;4.15;2.60;;;23.20;99.90;;;;;;5113247;28;20242;-53
2022/06/09 12:47:31;;;;;;;6.28;3.20;;;23.00;99.90;;;;;;5108927;28;20637;-53
2022/06/09 12:50:04;;;;;;;5.57;3.15;;;22.70;99.90;;;;;;5113744;28;20207;-52
2022/06/09 12:52:38;;;;;;;4.78;2.95;;;22.40;99.90;;;;;;5102265;28;20251;-52
2022/06/09 12:55:14;;;;;;;4.07;3.20;;;22.20;99.90;;;;;;5090152;28;20227;-51
2022/06/09 12:57:48;;;;;;;4.63;3.10;;;22.10;99.90;;;;;;5105731;28;20744;-52
2022/06/09 13:00:21;;;;;;;2.88;2.58;;;22.10;99.90;;;;;;5080124;28;20260;-52
2022/06/09 13:02:50;;;;;;;4.65;3.17;;;22.10;99.90;;;;;;5086715;28;20258;-53
2022/06/09 13:05:24;;;;;;;6.10;3.08;;;22.20;99.90;;;;;;5101789;28;20254;-52
2022/06/09 13:07:55;;;;;;;5.30;2.10;;;22.20;99.90;;;;;;5111709;28;20207;-52
2022/06/09 13:10:26;;;;;;;2.92;2.15;;;22.10;99.90;;;;;;5103908;28;20624;-52
2022/06/09 13:13:02;;;;;;;3.83;2.10;;;22.10;99.90;;;;;;5111258;28;20204;-51
2022/06/09 13:15:38;;;;;;;3.88;2.55;;;22.20;99.90;;;;;;5098401;28;20854;-52
2022/06/09 13:18:16;;;;;;;2.88;2.50;;;22.10;99.90;;;;;;5086334;28;20587;-52
2022/06/09 13:20:50;;;;;;;3.75;2.40;;;22.10;99.90;;;;;;5083096;28;20554;-52
2022/06/09 13:23:20;;;;;;;4.30;2.22;;;22.10;99.90;;;;;;5097248;28;20208;-52
2022/06/09 13:25:49;;;;;;;1.80;1.70;;;22.20;99.90;;;;;;5095864;28;20281;-52
2022/06/09 13:28:30;;;;;;;3.60;2.10;;;22.30;99.90;;;;;;5106015;28;20208;-52
2022/06/09 13:31:00;;;;;;;4.22;1.60;;;22.40;99.90;;;;;;5112458;28;20257;-53
2022/06/09 13:33:35;;;;;;;3.28;1.60;;;22.60;99.90;;;;;;5098438;28;20247;-52